This is the latest recevied weather packets stored in our database for station/object W8CEN. If no packets are shown the sender has not sent any weather packets the latest 10 day(s).
| Time | Temp. | Humidity | Pressure | Rain* | Wind** | Luminosity | Snow |
|---|---|---|---|---|---|---|---|
| 1778130039 | 8.89° C | 70% | 991.8 hPa | 0 mm | - | 0 W/m² | - |
| 1778129736 | 8.89° C | 72% | 991.9 hPa | 0 mm | - | 0 W/m² | - |
| 1778129433 | 8.33° C | 74% | 991.8 hPa | 0 mm | - | 0 W/m² | - |
| 1778129130 | 8.33° C | 74% | 991.8 hPa | 0 mm | - | 0 W/m² | - |
| 1778128827 | 7.78° C | 76% | 991.9 hPa | 0 mm | - | 0 W/m² | - |
| 1778128522 | 7.78° C | 77% | 991.9 hPa | 0 mm | - | 0 W/m² | - |
| 1778128220 | 7.78° C | 76% | 991.8 hPa | 0 mm | - | 0 W/m² | - |
| 1778127916 | 7.78° C | 76% | 991.8 hPa | 0 mm | - | 0 W/m² | - |
| 1778127611 | 7.78° C | 75% | 992 hPa | 0 mm | - | 0 W/m² | - |
| 1778127309 | 7.78° C | 75% | 992 hPa | 0 mm | - | 0 W/m² | - |
| 1778127006 | 7.78° C | 75% | 992.2 hPa | 0 mm | - | 0 W/m² | - |
| 1778126701 | 7.78° C | 74% | 991.9 hPa | 0 mm | - | 0 W/m² | - |
| 1778126397 | 7.78° C | 71% | 991.8 hPa | 0 mm | - | 0 W/m² | - |
| 1778126094 | 8.33° C | 70% | 991.8 hPa | 0 mm | - | 0 W/m² | - |
| 1778125791 | 8.33° C | 69% | 992.1 hPa | 0 mm | - | 0 W/m² | - |
| 1778125488 | 8.89° C | 67% | 992.1 hPa | 0 mm | - | 0 W/m² | - |
| 1778125186 | 8.89° C | 66% | 992.1 hPa | 0 mm | - | 0 W/m² | - |
| 1778124883 | 9.44° C | 65% | 991.9 hPa | 0 mm | - | 0 W/m² | - |
| 1778124580 | 9.44° C | 65% | 991.9 hPa | 0 mm | - | 0 W/m² | - |
| 1778124277 | 9.44° C | 65% | 992.3 hPa | 0 mm | - | 0 W/m² | - |
| 1778123973 | 9.44° C | 65% | 992.1 hPa | 0 mm | - | 0 W/m² | - |
| 1778123670 | 9.44° C | 66% | 992.1 hPa | 0 mm | - | 0 W/m² | - |
| 1778123367 | 9.44° C | 65% | 992.2 hPa | 0 mm | - | 0 W/m² | - |
| 1778123064 | 9.44° C | 66% | 992.3 hPa | 0 mm | - | 0 W/m² | - |
| 1778122761 | 10° C | 65% | 992.3 hPa | 0 mm | - | 0 W/m² | - |
* Rain latest hour (hover to see other rain measurements)
** Current wind speed in m/s (hover to see current wind gust speed)